sensor_id;sensor_type;location;lat;lon;timestamp;temperature;humidity
68274;SHT30;55104;47.356;19.448;2022-10-31T00:02:42;11.71;97.48
68274;SHT30;55104;47.356;19.448;2022-10-31T00:05:46;11.69;97.54
68274;SHT30;55104;47.356;19.448;2022-10-31T00:08:53;11.66;97.63
68274;SHT30;55104;47.356;19.448;2022-10-31T00:11:56;11.67;97.58
68274;SHT30;55104;47.356;19.448;2022-10-31T00:14:58;11.71;97.55
68274;SHT30;55104;47.356;19.448;2022-10-31T00:18:00;11.73;97.41
68274;SHT30;55104;47.356;19.448;2022-10-31T00:21:03;11.73;97.28
68274;SHT30;55104;47.356;19.448;2022-10-31T00:24:05;11.73;97.35
68274;SHT30;55104;47.356;19.448;2022-10-31T00:27:07;11.80;97.30
68274;SHT30;55104;47.356;19.448;2022-10-31T00:30:09;11.78;97.15
68274;SHT30;55104;47.356;19.448;2022-10-31T00:33:11;11.71;97.29
68274;SHT30;55104;47.356;19.448;2022-10-31T00:36:16;11.69;97.70
68274;SHT30;55104;47.356;19.448;2022-10-31T00:39:18;11.63;97.82
68274;SHT30;55104;47.356;19.448;2022-10-31T00:42:20;11.67;97.57
68274;SHT30;55104;47.356;19.448;2022-10-31T00:45:22;11.69;97.65
68274;SHT30;55104;47.356;19.448;2022-10-31T00:48:24;11.70;97.70
68274;SHT30;55104;47.356;19.448;2022-10-31T00:51:27;11.69;97.76
68274;SHT30;55104;47.356;19.448;2022-10-31T00:54:29;11.73;97.72
68274;SHT30;55104;47.356;19.448;2022-10-31T00:57:32;11.73;97.80
68274;SHT30;55104;47.356;19.448;2022-10-31T01:00:34;11.73;97.76
68274;SHT30;55104;47.356;19.448;2022-10-31T01:03:36;11.71;97.82
68274;SHT30;55104;47.356;19.448;2022-10-31T01:06:44;11.74;97.65
68274;SHT30;55104;47.356;19.448;2022-10-31T01:09:46;11.69;97.58
68274;SHT30;55104;47.356;19.448;2022-10-31T01:12:48;11.67;97.57
68274;SHT30;55104;47.356;19.448;2022-10-31T01:15:55;11.65;97.51
68274;SHT30;55104;47.356;19.448;2022-10-31T01:18:57;11.63;97.60
68274;SHT30;55104;47.356;19.448;2022-10-31T01:22:01;11.60;97.71
68274;SHT30;55104;47.356;19.448;2022-10-31T01:25:04;11.65;97.76
68274;SHT30;55104;47.356;19.448;2022-10-31T01:28:06;11.67;97.62
68274;SHT30;55104;47.356;19.448;2022-10-31T01:31:08;11.66;97.59
68274;SHT30;55104;47.356;19.448;2022-10-31T01:34:14;11.69;97.60
68274;SHT30;55104;47.356;19.448;2022-10-31T01:37:16;11.65;97.62
68274;SHT30;55104;47.356;19.448;2022-10-31T01:40:18;11.65;97.60
68274;SHT30;55104;47.356;19.448;2022-10-31T01:43:20;11.62;97.67
68274;SHT30;55104;47.356;19.448;2022-10-31T01:46:34;11.62;97.74
68274;SHT30;55104;47.356;19.448;2022-10-31T01:49:48;11.59;97.77
68274;SHT30;55104;47.356;19.448;2022-10-31T01:52:51;11.58;97.93
68274;SHT30;55104;47.356;19.448;2022-10-31T01:55:53;11.60;97.85
68274;SHT30;55104;47.356;19.448;2022-10-31T01:58:57;11.62;97.90
68274;SHT30;55104;47.356;19.448;2022-10-31T02:02:01;11.62;97.71
68274;SHT30;55104;47.356;19.448;2022-10-31T02:05:06;11.55;97.80
68274;SHT30;55104;47.356;19.448;2022-10-31T02:08:18;11.53;97.95
68274;SHT30;55104;47.356;19.448;2022-10-31T02:11:24;11.52;97.81
68274;SHT30;55104;47.356;19.448;2022-10-31T02:14:29;11.50;98.12
68274;SHT30;55104;47.356;19.448;2022-10-31T02:17:33;11.52;97.99
68274;SHT30;55104;47.356;19.448;2022-10-31T02:20:54;11.55;97.89
68274;SHT30;55104;47.356;19.448;2022-10-31T02:31:18;11.52;98.04
68274;SHT30;55104;47.356;19.448;2022-10-31T02:34:36;11.40;98.04
68274;SHT30;55104;47.356;19.448;2022-10-31T02:37:47;11.32;98.28
68274;SHT30;55104;47.356;19.448;2022-10-31T02:40:59;11.35;98.17
68274;SHT30;55104;47.356;19.448;2022-10-31T02:47:37;11.39;97.52
68274;SHT30;55104;47.356;19.448;2022-10-31T02:50:43;11.36;97.69
68274;SHT30;55104;47.356;19.448;2022-10-31T02:53:48;11.39;97.78
68274;SHT30;55104;47.356;19.448;2022-10-31T02:56:54;11.36;97.69
68274;SHT30;55104;47.356;19.448;2022-10-31T03:00:01;11.36;97.71
68274;SHT30;55104;47.356;19.448;2022-10-31T03:03:14;11.32;97.64
68274;SHT30;55104;47.356;19.448;2022-10-31T03:06:35;11.32;97.76
68274;SHT30;55104;47.356;19.448;2022-10-31T03:10:13;11.32;97.81
68274;SHT30;55104;47.356;19.448;2022-10-31T03:13:24;11.35;97.80
68274;SHT30;55104;47.356;19.448;2022-10-31T03:16:41;11.39;97.77
68274;SHT30;55104;47.356;19.448;2022-10-31T03:19:47;11.39;97.76
68274;SHT30;55104;47.356;19.448;2022-10-31T03:22:52;11.38;97.76
68274;SHT30;55104;47.356;19.448;2022-10-31T03:25:56;11.39;97.74
68274;SHT30;55104;47.356;19.448;2022-10-31T03:29:05;11.42;97.76
68274;SHT30;55104;47.356;19.448;2022-10-31T03:32:14;11.46;97.78
68274;SHT30;55104;47.356;19.448;2022-10-31T03:35:22;11.43;97.65
68274;SHT30;55104;47.356;19.448;2022-10-31T03:38:25;11.40;97.85
68274;SHT30;55104;47.356;19.448;2022-10-31T03:41:32;11.43;97.70
68274;SHT30;55104;47.356;19.448;2022-10-31T03:44:35;11.43;97.72
68274;SHT30;55104;47.356;19.448;2022-10-31T03:47:40;11.42;97.77
68274;SHT30;55104;47.356;19.448;2022-10-31T03:51:13;11.44;97.70
68274;SHT30;55104;47.356;19.448;2022-10-31T03:54:25;11.46;97.79
68274;SHT30;55104;47.356;19.448;2022-10-31T04:00:54;11.49;97.67
68274;SHT30;55104;47.356;19.448;2022-10-31T04:03:58;11.46;97.70
68274;SHT30;55104;47.356;19.448;2022-10-31T04:07:01;11.47;97.65
68274;SHT30;55104;47.356;19.448;2022-10-31T04:10:08;11.47;97.72
68274;SHT30;55104;47.356;19.448;2022-10-31T04:13:14;11.46;97.69
68274;SHT30;55104;47.356;19.448;2022-10-31T04:16:24;11.47;97.61
68274;SHT30;55104;47.356;19.448;2022-10-31T04:19:27;11.44;97.49
68274;SHT30;55104;47.356;19.448;2022-10-31T04:22:29;11.46;97.51
68274;SHT30;55104;47.356;19.448;2022-10-31T04:25:31;11.43;97.53
68274;SHT30;55104;47.356;19.448;2022-10-31T04:28:33;11.44;97.46
68274;SHT30;55104;47.356;19.448;2022-10-31T04:31:36;11.44;97.34
68274;SHT30;55104;47.356;19.448;2022-10-31T04:34:38;11.42;97.35
68274;SHT30;55104;47.356;19.448;2022-10-31T04:37:40;11.39;97.33
68274;SHT30;55104;47.356;19.448;2022-10-31T04:40:42;11.36;97.46
68274;SHT30;55104;47.356;19.448;2022-10-31T04:44:02;11.35;97.58
68274;SHT30;55104;47.356;19.448;2022-10-31T04:47:04;11.35;97.62
68274;SHT30;55104;47.356;19.448;2022-10-31T04:50:06;11.31;97.42
68274;SHT30;55104;47.356;19.448;2022-10-31T04:53:11;11.32;97.47
68274;SHT30;55104;47.356;19.448;2022-10-31T04:56:32;11.29;97.38
68274;SHT30;55104;47.356;19.448;2022-10-31T04:59:39;11.19;97.67
68274;SHT30;55104;47.356;19.448;2022-10-31T05:02:46;11.21;97.68
68274;SHT30;55104;47.356;19.448;2022-10-31T05:05:49;11.23;97.68
68274;SHT30;55104;47.356;19.448;2022-10-31T05:08:51;11.29;97.56
68274;SHT30;55104;47.356;19.448;2022-10-31T05:11:54;11.31;97.52
68274;SHT30;55104;47.356;19.448;2022-10-31T05:15:17;11.31;97.38
68274;SHT30;55104;47.356;19.448;2022-10-31T05:18:37;11.25;97.31
68274;SHT30;55104;47.356;19.448;2022-10-31T05:21:54;11.28;97.21
68274;SHT30;55104;47.356;19.448;2022-10-31T05:24:57;11.28;97.21
68274;SHT30;55104;47.356;19.448;2022-10-31T05:27:59;11.29;97.28
68274;SHT30;55104;47.356;19.448;2022-10-31T05:31:02;11.32;97.26
68274;SHT30;55104;47.356;19.448;2022-10-31T05:34:05;11.33;97.17
68274;SHT30;55104;47.356;19.448;2022-10-31T05:37:44;11.33;97.14
68274;SHT30;55104;47.356;19.448;2022-10-31T05:40:46;11.31;97.13
68274;SHT30;55104;47.356;19.448;2022-10-31T05:43:49;11.32;97.11
68274;SHT30;55104;47.356;19.448;2022-10-31T05:46:55;11.32;97.21
68274;SHT30;55104;47.356;19.448;2022-10-31T05:50:16;11.29;97.26
68274;SHT30;55104;47.356;19.448;2022-10-31T05:53:22;11.32;97.43
68274;SHT30;55104;47.356;19.448;2022-10-31T05:56:24;11.32;97.43
68274;SHT30;55104;47.356;19.448;2022-10-31T05:59:26;11.33;97.48
68274;SHT30;55104;47.356;19.448;2022-10-31T06:02:28;11.31;97.52
68274;SHT30;55104;47.356;19.448;2022-10-31T06:05:52;11.33;97.43
68274;SHT30;55104;47.356;19.448;2022-10-31T06:08:59;11.31;97.44
68274;SHT30;55104;47.356;19.448;2022-10-31T06:12:03;11.33;97.51
68274;SHT30;55104;47.356;19.448;2022-10-31T06:15:25;11.36;97.31
68274;SHT30;55104;47.356;19.448;2022-10-31T06:18:28;11.32;97.02
68274;SHT30;55104;47.356;19.448;2022-10-31T06:21:30;11.38;97.05
68274;SHT30;55104;47.356;19.448;2022-10-31T06:24:33;11.36;96.87
68274;SHT30;55104;47.356;19.448;2022-10-31T06:27:43;11.43;97.06
68274;SHT30;55104;47.356;19.448;2022-10-31T06:30:48;11.42;97.03
68274;SHT30;55104;47.356;19.448;2022-10-31T06:33:50;11.46;96.99
68274;SHT30;55104;47.356;19.448;2022-10-31T06:36:52;11.42;97.13
68274;SHT30;55104;47.356;19.448;2022-10-31T06:39:58;11.56;96.89
68274;SHT30;55104;47.356;19.448;2022-10-31T06:43:00;11.53;96.82
68274;SHT30;55104;47.356;19.448;2022-10-31T06:46:05;11.58;96.87
68274;SHT30;55104;47.356;19.448;2022-10-31T06:49:20;11.58;96.70
68274;SHT30;55104;47.356;19.448;2022-10-31T06:52:28;11.63;96.48
68274;SHT30;55104;47.356;19.448;2022-10-31T06:55:30;11.70;96.53
68274;SHT30;55104;47.356;19.448;2022-10-31T06:58:32;11.70;96.48
68274;SHT30;55104;47.356;19.448;2022-10-31T07:01:36;11.69;96.52
68274;SHT30;55104;47.356;19.448;2022-10-31T07:04:39;11.62;96.53
68274;SHT30;55104;47.356;19.448;2022-10-31T07:07:41;11.66;96.43
68274;SHT30;55104;47.356;19.448;2022-10-31T07:10:51;11.67;96.45
68274;SHT30;55104;47.356;19.448;2022-10-31T07:13:54;11.65;96.50
68274;SHT30;55104;47.356;19.448;2022-10-31T07:16:56;11.66;96.70
68274;SHT30;55104;47.356;19.448;2022-10-31T07:20:06;11.67;96.49
68274;SHT30;55104;47.356;19.448;2022-10-31T07:23:11;11.67;96.72
68274;SHT30;55104;47.356;19.448;2022-10-31T07:26:16;11.67;96.94
68274;SHT30;55104;47.356;19.448;2022-10-31T07:29:20;11.60;96.73
68274;SHT30;55104;47.356;19.448;2022-10-31T07:32:24;11.63;96.73
68274;SHT30;55104;47.356;19.448;2022-10-31T07:35:31;11.62;96.56
68274;SHT30;55104;47.356;19.448;2022-10-31T07:38:33;11.65;96.61
68274;SHT30;55104;47.356;19.448;2022-10-31T07:41:39;11.56;96.83
68274;SHT30;55104;47.356;19.448;2022-10-31T07:44:43;11.60;96.70
68274;SHT30;55104;47.356;19.448;2022-10-31T07:48:03;11.66;96.70
68274;SHT30;55104;47.356;19.448;2022-10-31T07:51:38;11.74;96.64
68274;SHT30;55104;47.356;19.448;2022-10-31T07:55:03;11.83;96.45
68274;SHT30;55104;47.356;19.448;2022-10-31T07:58:16;11.83;96.46
68274;SHT30;55104;47.356;19.448;2022-10-31T08:01:18;11.86;96.21
68274;SHT30;55104;47.356;19.448;2022-10-31T08:04:35;11.94;95.89
68274;SHT30;55104;47.356;19.448;2022-10-31T08:07:56;11.94;95.76
68274;SHT30;55104;47.356;19.448;2022-10-31T08:11:00;11.91;95.88
68274;SHT30;55104;47.356;19.448;2022-10-31T08:14:02;11.87;95.89
68274;SHT30;55104;47.356;19.448;2022-10-31T08:17:04;11.91;96.19
68274;SHT30;55104;47.356;19.448;2022-10-31T08:20:16;11.95;95.91
68274;SHT30;55104;47.356;19.448;2022-10-31T08:23:20;11.83;96.01
68274;SHT30;55104;47.356;19.448;2022-10-31T08:26:22;11.90;95.88
68274;SHT30;55104;47.356;19.448;2022-10-31T08:29:26;11.93;95.95
68274;SHT30;55104;47.356;19.448;2022-10-31T08:32:28;11.99;95.80
68274;SHT30;55104;47.356;19.448;2022-10-31T08:35:48;12.02;95.76
68274;SHT30;55104;47.356;19.448;2022-10-31T08:39:11;12.08;95.62
68274;SHT30;55104;47.356;19.448;2022-10-31T08:42:13;12.14;95.32
68274;SHT30;55104;47.356;19.448;2022-10-31T08:45:15;12.14;95.30
68274;SHT30;55104;47.356;19.448;2022-10-31T08:48:17;12.13;95.15
68274;SHT30;55104;47.356;19.448;2022-10-31T08:51:19;12.15;95.30
68274;SHT30;55104;47.356;19.448;2022-10-31T08:54:25;12.18;95.48
68274;SHT30;55104;47.356;19.448;2022-10-31T08:57:29;12.24;95.32
68274;SHT30;55104;47.356;19.448;2022-10-31T09:00:34;12.25;94.99
68274;SHT30;55104;47.356;19.448;2022-10-31T09:03:49;12.21;94.93
68274;SHT30;55104;47.356;19.448;2022-10-31T09:06:51;12.24;94.98
68274;SHT30;55104;47.356;19.448;2022-10-31T09:10:13;12.26;94.62
68274;SHT30;55104;47.356;19.448;2022-10-31T09:13:18;12.29;94.41
68274;SHT30;55104;47.356;19.448;2022-10-31T09:16:51;12.25;94.59
68274;SHT30;55104;47.356;19.448;2022-10-31T09:19:57;12.22;94.56
68274;SHT30;55104;47.356;19.448;2022-10-31T09:23:08;12.25;94.38
68274;SHT30;55104;47.356;19.448;2022-10-31T09:26:12;12.29;94.22
68274;SHT30;55104;47.356;19.448;2022-10-31T09:29:29;12.35;94.37
68274;SHT30;55104;47.356;19.448;2022-10-31T09:32:34;12.36;94.56
68274;SHT30;55104;47.356;19.448;2022-10-31T09:35:37;12.41;94.46
68274;SHT30;55104;47.356;19.448;2022-10-31T09:38:39;12.42;94.08
68274;SHT30;55104;47.356;19.448;2022-10-31T09:45:18;12.49;94.10
68274;SHT30;55104;47.356;19.448;2022-10-31T09:52:09;12.36;94.45
68274;SHT30;55104;47.356;19.448;2022-10-31T09:55:21;12.39;94.34
68274;SHT30;55104;47.356;19.448;2022-10-31T09:58:29;12.24;94.48
68274;SHT30;55104;47.356;19.448;2022-10-31T10:01:54;12.24;95.12
68274;SHT30;55104;47.356;19.448;2022-10-31T10:25:22;12.39;95.06
68274;SHT30;55104;47.356;19.448;2022-10-31T10:28:29;12.41;95.24
68274;SHT30;55104;47.356;19.448;2022-10-31T10:31:38;12.35;95.22
68274;SHT30;55104;47.356;19.448;2022-10-31T10:34:46;12.24;95.04
68274;SHT30;55104;47.356;19.448;2022-10-31T10:37:52;12.33;94.77
68274;SHT30;55104;47.356;19.448;2022-10-31T10:40:56;12.38;95.04
68274;SHT30;55104;47.356;19.448;2022-10-31T10:44:00;12.39;95.12
68274;SHT30;55104;47.356;19.448;2022-10-31T10:47:02;12.46;94.75
68274;SHT30;55104;47.356;19.448;2022-10-31T10:50:29;12.52;94.63
68274;SHT30;55104;47.356;19.448;2022-10-31T10:53:44;12.53;94.45
68274;SHT30;55104;47.356;19.448;2022-10-31T11:00:38;12.49;94.21
68274;SHT30;55104;47.356;19.448;2022-10-31T11:03:42;12.56;94.23
68274;SHT30;55104;47.356;19.448;2022-10-31T11:06:44;12.49;94.21
68274;SHT30;55104;47.356;19.448;2022-10-31T11:09:46;12.53;94.24
68274;SHT30;55104;47.356;19.448;2022-10-31T11:13:05;12.53;94.41
68274;SHT30;55104;47.356;19.448;2022-10-31T11:16:10;12.52;94.16
68274;SHT30;55104;47.356;19.448;2022-10-31T11:22:20;12.56;94.18
68274;SHT30;55104;47.356;19.448;2022-10-31T11:25:23;12.52;94.47
68274;SHT30;55104;47.356;19.448;2022-10-31T11:28:27;12.55;94.33
68274;SHT30;55104;47.356;19.448;2022-10-31T11:31:32;12.60;94.25
68274;SHT30;55104;47.356;19.448;2022-10-31T11:34:42;12.66;94.18
68274;SHT30;55104;47.356;19.448;2022-10-31T11:37:48;12.63;94.12
68274;SHT30;55104;47.356;19.448;2022-10-31T11:41:18;12.61;94.29
68274;SHT30;55104;47.356;19.448;2022-10-31T11:44:27;12.69;93.94
68274;SHT30;55104;47.356;19.448;2022-10-31T11:47:31;12.69;93.49
68274;SHT30;55104;47.356;19.448;2022-10-31T11:50:40;12.67;93.35
68274;SHT30;55104;47.356;19.448;2022-10-31T11:53:53;12.66;92.86
68274;SHT30;55104;47.356;19.448;2022-10-31T11:57:02;12.61;93.04
68274;SHT30;55104;47.356;19.448;2022-10-31T12:00:38;12.56;93.54
68274;SHT30;55104;47.356;19.448;2022-10-31T12:04:06;12.63;93.39
68274;SHT30;55104;47.356;19.448;2022-10-31T12:07:09;12.63;93.47
68274;SHT30;55104;47.356;19.448;2022-10-31T12:10:11;12.60;93.63
68274;SHT30;55104;47.356;19.448;2022-10-31T12:13:34;12.52;93.70
68274;SHT30;55104;47.356;19.448;2022-10-31T12:20:13;12.56;93.67
68274;SHT30;55104;47.356;19.448;2022-10-31T12:23:30;12.61;93.90
68274;SHT30;55104;47.356;19.448;2022-10-31T12:26:57;12.57;94.05
68274;SHT30;55104;47.356;19.448;2022-10-31T12:30:21;12.60;93.46
68274;SHT30;55104;47.356;19.448;2022-10-31T12:41:08;12.69;93.24
68274;SHT30;55104;47.356;19.448;2022-10-31T12:45:00;12.66;93.08
68274;SHT30;55104;47.356;19.448;2022-10-31T12:51:15;12.61;93.51
68274;SHT30;55104;47.356;19.448;2022-10-31T12:57:52;12.57;93.19
68274;SHT30;55104;47.356;19.448;2022-10-31T13:01:11;12.56;93.33
68274;SHT30;55104;47.356;19.448;2022-10-31T13:04:35;12.57;93.50
68274;SHT30;55104;47.356;19.448;2022-10-31T13:07:41;12.55;93.56
68274;SHT30;55104;47.356;19.448;2022-10-31T13:11:03;12.57;93.48
68274;SHT30;55104;47.356;19.448;2022-10-31T13:17:31;12.50;93.60
68274;SHT30;55104;47.356;19.448;2022-10-31T13:20:42;12.50;93.82
68274;SHT30;55104;47.356;19.448;2022-10-31T13:23:48;12.45;93.84
68274;SHT30;55104;47.356;19.448;2022-10-31T13:26:55;12.46;94.07
68274;SHT30;55104;47.356;19.448;2022-10-31T13:30:15;12.45;94.06
68274;SHT30;55104;47.356;19.448;2022-10-31T13:33:23;12.46;93.93
68274;SHT30;55104;47.356;19.448;2022-10-31T13:36:48;12.45;93.88
68274;SHT30;55104;47.356;19.448;2022-10-31T13:43:20;12.41;94.13
68274;SHT30;55104;47.356;19.448;2022-10-31T13:52:32;12.38;94.35
68274;SHT30;55104;47.356;19.448;2022-10-31T13:55:40;12.35;94.41
68274;SHT30;55104;47.356;19.448;2022-10-31T14:02:14;12.17;94.65
68274;SHT30;55104;47.356;19.448;2022-10-31T14:05:33;12.21;94.77
68274;SHT30;55104;47.356;19.448;2022-10-31T14:08:39;12.26;94.91
68274;SHT30;55104;47.356;19.448;2022-10-31T14:11:45;12.20;95.21
68274;SHT30;55104;47.356;19.448;2022-10-31T14:14:51;12.17;95.41
68274;SHT30;55104;47.356;19.448;2022-10-31T14:18:04;12.18;95.65
68274;SHT30;55104;47.356;19.448;2022-10-31T14:21:46;12.17;95.64
68274;SHT30;55104;47.356;19.448;2022-10-31T14:24:48;12.10;95.95
68274;SHT30;55104;47.356;19.448;2022-10-31T14:27:50;12.11;96.03
68274;SHT30;55104;47.356;19.448;2022-10-31T14:30:55;12.05;96.24
68274;SHT30;55104;47.356;19.448;2022-10-31T14:33:59;12.01;96.43
68274;SHT30;55104;47.356;19.448;2022-10-31T14:40:29;11.95;96.89
68274;SHT30;55104;47.356;19.448;2022-10-31T14:50:42;12.02;97.02
68274;SHT30;55104;47.356;19.448;2022-10-31T14:53:56;11.95;97.02
68274;SHT30;55104;47.356;19.448;2022-10-31T14:57:04;11.97;97.03
68274;SHT30;55104;47.356;19.448;2022-10-31T15:00:12;11.95;97.05
68274;SHT30;55104;47.356;19.448;2022-10-31T15:06:31;11.71;96.97
68274;SHT30;55104;47.356;19.448;2022-10-31T15:09:39;11.63;97.21
68274;SHT30;55104;47.356;19.448;2022-10-31T15:12:44;11.55;97.44
68274;SHT30;55104;47.356;19.448;2022-10-31T15:15:46;11.65;97.56
68274;SHT30;55104;47.356;19.448;2022-10-31T15:18:58;11.67;97.48
68274;SHT30;55104;47.356;19.448;2022-10-31T15:22:02;11.62;97.71
68274;SHT30;55104;47.356;19.448;2022-10-31T15:25:05;11.63;97.81
68274;SHT30;55104;47.356;19.448;2022-10-31T15:28:19;11.66;97.69
68274;SHT30;55104;47.356;19.448;2022-10-31T15:31:22;11.71;97.67
68274;SHT30;55104;47.356;19.448;2022-10-31T15:34:32;11.73;97.27
68274;SHT30;55104;47.356;19.448;2022-10-31T15:37:36;11.71;97.05
68274;SHT30;55104;47.356;19.448;2022-10-31T15:40:39;11.69;96.94
68274;SHT30;55104;47.356;19.448;2022-10-31T15:43:44;11.69;96.73
68274;SHT30;55104;47.356;19.448;2022-10-31T15:46:55;11.58;96.80
68274;SHT30;55104;47.356;19.448;2022-10-31T15:49:59;11.62;96.91
68274;SHT30;55104;47.356;19.448;2022-10-31T15:53:02;11.67;96.90
68274;SHT30;55104;47.356;19.448;2022-10-31T15:56:08;11.63;97.00
68274;SHT30;55104;47.356;19.448;2022-10-31T15:59:19;11.62;96.85
68274;SHT30;55104;47.356;19.448;2022-10-31T16:02:24;11.62;96.68
68274;SHT30;55104;47.356;19.448;2022-10-31T16:05:34;11.55;96.67
68274;SHT30;55104;47.356;19.448;2022-10-31T16:08:37;11.49;96.51
68274;SHT30;55104;47.356;19.448;2022-10-31T16:11:46;11.52;96.49
68274;SHT30;55104;47.356;19.448;2022-10-31T16:14:50;11.50;96.66
68274;SHT30;55104;47.356;19.448;2022-10-31T16:17:52;11.43;96.96
68274;SHT30;55104;47.356;19.448;2022-10-31T16:21:11;11.39;97.30
68274;SHT30;55104;47.356;19.448;2022-10-31T16:24:18;11.47;97.16
68274;SHT30;55104;47.356;19.448;2022-10-31T16:27:24;11.49;97.19
68274;SHT30;55104;47.356;19.448;2022-10-31T16:30:40;11.47;97.13
68274;SHT30;55104;47.356;19.448;2022-10-31T16:33:48;11.44;97.46
68274;SHT30;55104;47.356;19.448;2022-10-31T16:36:50;11.42;97.63
68274;SHT30;55104;47.356;19.448;2022-10-31T16:39:53;11.47;97.54
68274;SHT30;55104;47.356;19.448;2022-10-31T16:42:57;11.53;97.14
68274;SHT30;55104;47.356;19.448;2022-10-31T16:46:00;11.55;97.03
68274;SHT30;55104;47.356;19.448;2022-10-31T16:49:02;11.55;96.88
68274;SHT30;55104;47.356;19.448;2022-10-31T16:52:04;11.58;96.93
68274;SHT30;55104;47.356;19.448;2022-10-31T16:55:10;11.63;96.81
68274;SHT30;55104;47.356;19.448;2022-10-31T16:58:21;11.65;96.69
68274;SHT30;55104;47.356;19.448;2022-10-31T17:01:24;11.63;96.68
68274;SHT30;55104;47.356;19.448;2022-10-31T17:04:27;11.67;96.76
68274;SHT30;55104;47.356;19.448;2022-10-31T17:07:29;11.70;96.65
68274;SHT30;55104;47.356;19.448;2022-10-31T17:10:31;11.69;96.76
68274;SHT30;55104;47.356;19.448;2022-10-31T17:13:34;11.69;96.72
68274;SHT30;55104;47.356;19.448;2022-10-31T17:16:37;11.69;96.54
68274;SHT30;55104;47.356;19.448;2022-10-31T17:19:39;11.71;96.24
68274;SHT30;55104;47.356;19.448;2022-10-31T17:22:41;11.74;96.31
68274;SHT30;55104;47.356;19.448;2022-10-31T17:25:44;11.69;96.54
68274;SHT30;55104;47.356;19.448;2022-10-31T17:28:46;11.67;96.49
68274;SHT30;55104;47.356;19.448;2022-10-31T17:31:48;11.62;96.82
68274;SHT30;55104;47.356;19.448;2022-10-31T17:34:51;11.65;96.81
68274;SHT30;55104;47.356;19.448;2022-10-31T17:37:53;11.66;96.46
68274;SHT30;55104;47.356;19.448;2022-10-31T17:40:55;11.65;96.61
68274;SHT30;55104;47.356;19.448;2022-10-31T17:43:58;11.60;96.73
68274;SHT30;55104;47.356;19.448;2022-10-31T17:47:00;11.62;96.88
68274;SHT30;55104;47.356;19.448;2022-10-31T17:50:03;11.65;96.84
68274;SHT30;55104;47.356;19.448;2022-10-31T17:53:05;11.53;96.82
68274;SHT30;55104;47.356;19.448;2022-10-31T17:56:08;11.52;96.85
68274;SHT30;55104;47.356;19.448;2022-10-31T17:59:11;11.50;96.89
68274;SHT30;55104;47.356;19.448;2022-10-31T18:02:13;11.52;96.85
68274;SHT30;55104;47.356;19.448;2022-10-31T18:05:16;11.49;97.07
68274;SHT30;55104;47.356;19.448;2022-10-31T18:08:18;11.52;97.24
68274;SHT30;55104;47.356;19.448;2022-10-31T18:11:21;11.52;97.07
68274;SHT30;55104;47.356;19.448;2022-10-31T18:14:24;11.56;96.94
68274;SHT30;55104;47.356;19.448;2022-10-31T18:17:27;11.52;96.82
68274;SHT30;55104;47.356;19.448;2022-10-31T18:20:30;11.50;96.77
68274;SHT30;55104;47.356;19.448;2022-10-31T18:23:33;11.46;97.12
68274;SHT30;55104;47.356;19.448;2022-10-31T18:26:36;11.39;97.45
68274;SHT30;55104;47.356;19.448;2022-10-31T18:29:41;11.42;97.54
68274;SHT30;55104;47.356;19.448;2022-10-31T18:32:43;11.44;97.59
68274;SHT30;55104;47.356;19.448;2022-10-31T18:35:45;11.49;97.51
68274;SHT30;55104;47.356;19.448;2022-10-31T18:38:48;11.53;97.36
68274;SHT30;55104;47.356;19.448;2022-10-31T18:41:50;11.53;97.15
68274;SHT30;55104;47.356;19.448;2022-10-31T18:44:52;11.49;97.15
68274;SHT30;55104;47.356;19.448;2022-10-31T18:47:54;11.49;97.34
68274;SHT30;55104;47.356;19.448;2022-10-31T18:51:01;11.47;97.25
68274;SHT30;55104;47.356;19.448;2022-10-31T18:54:08;11.52;97.11
68274;SHT30;55104;47.356;19.448;2022-10-31T18:57:10;11.50;97.32
68274;SHT30;55104;47.356;19.448;2022-10-31T19:00:13;11.40;97.48
68274;SHT30;55104;47.356;19.448;2022-10-31T19:03:16;11.40;97.62
68274;SHT30;55104;47.356;19.448;2022-10-31T19:06:26;11.40;97.68
68274;SHT30;55104;47.356;19.448;2022-10-31T19:09:29;11.43;97.71
68274;SHT30;55104;47.356;19.448;2022-10-31T19:12:33;11.39;97.79
68274;SHT30;55104;47.356;19.448;2022-10-31T19:15:35;11.35;97.61
68274;SHT30;55104;47.356;19.448;2022-10-31T19:18:38;11.29;97.86
68274;SHT30;55104;47.356;19.448;2022-10-31T19:21:41;11.28;97.83
68274;SHT30;55104;47.356;19.448;2022-10-31T19:24:44;11.32;97.78
68274;SHT30;55104;47.356;19.448;2022-10-31T19:27:46;11.31;97.97
68274;SHT30;55104;47.356;19.448;2022-10-31T19:30:55;11.36;97.65
68274;SHT30;55104;47.356;19.448;2022-10-31T19:33:57;11.31;97.87
68274;SHT30;55104;47.356;19.448;2022-10-31T19:36:59;11.32;97.95
68274;SHT30;55104;47.356;19.448;2022-10-31T19:40:03;11.32;97.82
68274;SHT30;55104;47.356;19.448;2022-10-31T19:43:06;11.33;97.83
68274;SHT30;55104;47.356;19.448;2022-10-31T19:46:11;11.35;97.76
68274;SHT30;55104;47.356;19.448;2022-10-31T19:49:29;11.36;97.81
68274;SHT30;55104;47.356;19.448;2022-10-31T19:52:33;11.33;97.59
68274;SHT30;55104;47.356;19.448;2022-10-31T19:55:38;11.33;97.84
68274;SHT30;55104;47.356;19.448;2022-10-31T19:58:48;11.35;97.72
68274;SHT30;55104;47.356;19.448;2022-10-31T20:01:52;11.32;97.64
68274;SHT30;55104;47.356;19.448;2022-10-31T20:04:54;11.36;97.46
68274;SHT30;55104;47.356;19.448;2022-10-31T20:07:57;11.32;97.55
68274;SHT30;55104;47.356;19.448;2022-10-31T20:11:01;11.31;97.54
68274;SHT30;55104;47.356;19.448;2022-10-31T20:14:05;11.29;97.61
68274;SHT30;55104;47.356;19.448;2022-10-31T20:17:08;11.23;97.91
68274;SHT30;55104;47.356;19.448;2022-10-31T20:20:10;11.26;97.83
68274;SHT30;55104;47.356;19.448;2022-10-31T20:23:13;11.25;97.89
68274;SHT30;55104;47.356;19.448;2022-10-31T20:26:17;11.29;97.61
68274;SHT30;55104;47.356;19.448;2022-10-31T20:29:20;11.21;97.42
68274;SHT30;55104;47.356;19.448;2022-10-31T20:32:22;11.19;97.69
68274;SHT30;55104;47.356;19.448;2022-10-31T20:35:26;11.18;97.56
68274;SHT30;55104;47.356;19.448;2022-10-31T20:38:28;11.12;97.62
68274;SHT30;55104;47.356;19.448;2022-10-31T20:41:30;11.15;97.70
68274;SHT30;55104;47.356;19.448;2022-10-31T20:44:32;11.10;97.79
68274;SHT30;55104;47.356;19.448;2022-10-31T20:47:34;11.11;97.88
68274;SHT30;55104;47.356;19.448;2022-10-31T20:50:37;11.11;97.86
68274;SHT30;55104;47.356;19.448;2022-10-31T20:53:40;11.12;97.87
68274;SHT30;55104;47.356;19.448;2022-10-31T20:56:43;11.19;97.62
68274;SHT30;55104;47.356;19.448;2022-10-31T20:59:45;11.12;97.81